Flight Track Log - Related Links

Times and Time Zones

All times are in EDT time to prevent confusion due to time zone crossing. See the N828AF flight status page for this flight to view local times or setup timezone preferences in your user account.

Time Position Orientation Groundspeed Altitude Reporting Facility
EDT Latitude Longitude Course Direction KTS MPH feet Rate Location/Type
Sun 02:27:32 PM 32.9886 -80.0544 331° Northwest 235 270 6,100  Level Jacksonville Center
Sun 02:28:32 PM 33.0169 -80.1181 298° West 236 272 7,800 1,750 Climbing Jacksonville Center
Sun 02:29:32 PM 33.0542 -80.1886 302° West 236 272 9,600 1,750 Climbing Jacksonville Center
Sun 02:30:32 PM 33.1197 -80.2389 327° Northwest 254 292 11,300 1,900 Climbing Jacksonville Center
Sun 02:31:32 PM 33.1878 -80.2889 328° Northwest 265 305 13,400 2,000 Climbing Jacksonville Center
Sun 02:32:00 PM 33.3291 -80.3638 331° Northwest  Level FlightAware Approximate
Sun 02:32:32 PM 33.2428 -80.3294 328° Northwest 267 307 15,300  Level Jacksonville Center
Sun 02:33:32 PM 33.3064 -80.3800 326° Northwest 267 307 16,800 1,500 Climbing Jacksonville Center
Sun 02:34:32 PM 33.3742 -80.4303 328° Northwest 272 313 18,300 1,600 Climbing Jacksonville Center
Sun 02:35:32 PM 33.4397 -80.4806 327° Northwest 277 319 20,000 1,650 Climbing Jacksonville Center
Sun 02:36:32 PM 33.5075 -80.5311 328° Northwest 277 319 21,600 1,600 Climbing Jacksonville Center
Sun 02:37:32 PM 33.5753 -80.5842 327° Northwest 283 326 23,200 1,550 Climbing Jacksonville Center
Sun 02:38:32 PM 33.6408 -80.6347 327° Northwest 283 326 24,700 1,550 Climbing Jacksonville Center
Sun 02:39:32 PM 33.7086 -80.6881 327° Northwest 283 326 26,300 1,550 Climbing Jacksonville Center
Sun 02:40:32 PM 33.7886 -80.7261 338° Northwest 288 331 27,800 1,450 Climbing Jacksonville Center
Sun 02:41:32 PM 33.8683 -80.7592 341° North 299 344 29,200 1,350 Climbing Jacksonville Center
Sun 02:42:32 PM 33.9400 -80.8000 335° Northwest 294 338 30,500 1,200 Climbing Jacksonville Center
Sun 02:43:32 PM 34.0036 -80.8533 325° Northwest 287 330 31,600 1,051 Climbing Jacksonville Center
Sun 02:45:29 PM 34.1356 -80.9594 326° Northwest 276 318 33,600 983 Climbing Atlanta Center
Sun 02:46:29 PM 34.1950 -81.0050 328° Northwest 279 321 34,500 700 Climbing Atlanta Center
Sun 02:47:29 PM 34.2611 -81.0578 327° Northwest 279 321 35,000 250 Climbing Atlanta Center
Sun 02:48:29 PM 34.3314 -81.1133 327° Northwest 290 334 35,000  Level Atlanta Center
Sun 02:49:29 PM 34.4100 -81.1736 328° Northwest 317 365 35,000 100 Level Atlanta Center
Sun 02:50:29 PM 34.4908 -81.2414 325° Northwest 344 396 35,200 450 Climbing Atlanta Center
Sun 02:51:29 PM 34.5650 -81.2994 327° Northwest 340 391 35,900 400 Climbing Atlanta Center
Sun 02:52:29 PM 34.6458 -81.3650 326° Northwest 334 384 36,000 50 Climbing Atlanta Center
Sun 02:53:29 PM 34.7331 -81.4381 325° Northwest 342 394 36,000  Level Atlanta Center
Sun 02:54:29 PM 34.8158 -81.5036 327° Northwest 347 399 36,000  Level Atlanta Center
Sun 02:55:29 PM 34.8964 -81.5672 327° Northwest 355 409 36,000  Level Atlanta Center
Sun 02:56:29 PM 34.9811 -81.6381 326° Northwest 355 409 36,000  Level Atlanta Center
Sun 02:57:29 PM 35.0681 -81.7092 326° Northwest 361 415 36,000  Level Atlanta Center
Sun 02:58:29 PM 35.1528 -81.7753 327° Northwest 367 422 36,000  Level Atlanta Center
Sun 02:59:29 PM 35.2397 -81.8467 326° Northwest 367 422 36,000  Level Atlanta Center
Sun 03:00:29 PM 35.3139 -81.9083 326° Northwest 367 422 36,000  Level Atlanta Center
Sun 03:01:29 PM 35.4006 -81.9775 327° Northwest 367 422 36,000  Level Atlanta Center
Sun 03:02:29 PM 35.4892 -82.0467 328° Northwest 372 428 36,000  Level Atlanta Center
Sun 03:03:29 PM 35.5761 -82.1211 325° Northwest 377 434 36,000  Level Atlanta Center
Sun 03:04:29 PM 35.6711 -82.1983 327° Northwest 377 434 36,000  Level Atlanta Center
Sun 03:05:29 PM 35.7514 -82.2628 327° Northwest 377 434 36,000  Level Atlanta Center
Sun 03:06:29 PM 35.8358 -82.3353 325° Northwest 377 434 36,000  Level Atlanta Center
Sun 03:07:29 PM 35.9244 -82.4078 326° Northwest 382 440 36,000  Level Atlanta Center
Sun 03:08:29 PM 36.0108 -82.4806 326° Northwest 377 434 36,000  Level Atlanta Center
Sun 03:09:29 PM 36.0994 -82.5558 326° Northwest 377 434 36,000  Level Atlanta Center
Sun 03:10:29 PM 36.1942 -82.6367 325° Northwest 377 434 36,000  Level Atlanta Center
Sun 03:11:29 PM 36.2825 -82.7097 326° Northwest 377 434 36,000  Level Atlanta Center
Sun 03:12:29 PM 36.3711 -82.7856 325° Northwest 377 434 36,000  Level Atlanta Center
Sun 03:14:33 PM 36.5439 -82.9333 326° Northwest 383 441 36,000  Level Indianapolis Center
Sun 03:15:35 PM 36.6228 -83.0186 319° Northwest 377 434 36,000  Level Indianapolis Center
Sun 03:16:37 PM 36.7178 -83.1169 320° Northwest 377 434 36,000  Level Indianapolis Center
Sun 03:17:39 PM 36.7981 -83.2039 319° Northwest 377 434 36,000  Level Indianapolis Center
Sun 03:18:41 PM 36.8789 -83.2894 320° Northwest 377 434 36,000  Level Indianapolis Center
Sun 03:19:43 PM 36.9589 -83.3744 320° Northwest 375 432 36,000  Level Indianapolis Center
Sun 03:20:45 PM 37.0392 -83.4600 320° Northwest 376 433 36,000  Level Indianapolis Center
Sun 03:21:47 PM 37.1200 -83.5444 320° Northwest 375 432 36,000  Level Indianapolis Center
Sun 03:22:49 PM 37.1992 -83.6294 319° Northwest 372 428 36,000  Level Indianapolis Center
Sun 03:23:51 PM 37.2914 -83.7297 319° Northwest 374 430 36,000  Level Indianapolis Center
Sun 03:24:53 PM 37.3711 -83.8147 320° Northwest 374 430 36,000  Level Indianapolis Center
Sun 03:25:55 PM 37.4486 -83.8992 319° Northwest 368 423 36,000  Level Indianapolis Center
Sun 03:26:57 PM 37.5278 -83.9844 320° Northwest 372 428 36,000  Level Indianapolis Center
Sun 03:27:59 PM 37.6069 -84.0714 319° Northwest 378 435 36,000  Level Indianapolis Center
Sun 03:29:01 PM 37.6989 -84.1697 320° Northwest 371 427 36,000  Level Indianapolis Center
Sun 03:30:04 PM 37.7789 -84.2550 320° Northwest 375 432 36,000  Level Indianapolis Center
Sun 03:31:06 PM 37.8567 -84.3411 319° Northwest 374 430 36,000  Level Indianapolis Center
Sun 03:32:08 PM 37.9344 -84.4272 319° Northwest 373 429 36,000  Level Indianapolis Center
Sun 03:33:10 PM 38.0111 -84.5136 318° Northwest 369 425 36,000 -290 Level Indianapolis Center
Sun 03:34:12 PM 38.0883 -84.6019 318° Northwest 370 426 35,400 -1,452 Descending Indianapolis Center
Sun 03:35:14 PM 38.1908 -84.7111 320° Northwest 413 475 33,000 -1,935 Descending Indianapolis Center
Sun 03:36:16 PM 38.2769 -84.8078 319° Northwest 413 475 31,400 -2,516 Descending Indianapolis Center
Sun 03:37:18 PM 38.3578 -84.9008 318° Northwest 393 452 27,800 -3,194 Descending Indianapolis Center
Sun 03:38:20 PM 38.4419 -84.9908 320° Northwest 393 452 24,800 -1,839 Descending Indianapolis Center
Sun 03:39:22 PM 38.5156 -85.0753 318° Northwest 361 415 24,000 -1,065 Descending Indianapolis Center
Sun 03:40:24 PM 38.5997 -85.1700 319° Northwest 346 398 22,600 -1,210 Descending Indianapolis Center
Sun 03:41:26 PM 38.6689 -85.2519 317° Northwest 351 404 21,500 -1,258 Descending Indianapolis Center
Sun 03:42:28 PM 38.7425 -85.3353 319° Northwest 353 406 20,000 -1,403 Descending Indianapolis Center
Sun 03:43:30 PM 38.8169 -85.4183 319° Northwest 354 407 18,600 -1,161 Descending Indianapolis Center
Sun 03:44:32 PM 38.8911 -85.5025 319° Northwest 354 407 17,600 -1,258 Descending Indianapolis Center
Sun 03:45:34 PM 38.9631 -85.5850 318° Northwest 347 399 16,000 -1,597 Descending Indianapolis Center
Sun 03:46:36 PM 39.0508 -85.6844 319° Northwest 350 403 14,300 -1,548 Descending Indianapolis Center
Sun 03:47:38 PM 39.1344 -85.7181 343° North 327 376 12,800 -1,403 Descending Indianapolis Center
Sun 03:48:40 PM 39.2236 -85.7386 350° North 323 372 11,400 -1,355 Descending Indianapolis Center
Sun 03:49:42 PM 39.3081 -85.7608 348° North 317 365 10,000 -1,306 Descending Indianapolis Center
Sun 03:50:44 PM 39.3858 -85.7817 348° North 301 346 8,700 -1,210 Descending Indianapolis Center
Sun 03:51:46 PM 39.4589 -85.7994 349° North 287 330 7,500 -1,161 Descending Indianapolis Center
Sun 03:52:48 PM 39.5308 -85.8172 349° North 276 318 6,300 -1,161 Descending Indianapolis Center

Login

Don't have an account? Register now (free) for customized features, flight alerts, and more!